sensor_id;sensor_type;location;lat;lon;timestamp;P1;durP1;ratioP1;P2;durP2;ratioP2
8592;SDS011;4334;49.982;8.398;2023-07-29T00:01:43;6.93;;;4.30;;
8592;SDS011;4334;49.982;8.398;2023-07-29T00:04:10;5.70;;;4.43;;
8592;SDS011;4334;49.982;8.398;2023-07-29T00:06:37;7.77;;;4.33;;
8592;SDS011;4334;49.982;8.398;2023-07-29T00:09:04;5.27;;;4.20;;
8592;SDS011;4334;49.982;8.398;2023-07-29T00:11:31;6.20;;;4.53;;
8592;SDS011;4334;49.982;8.398;2023-07-29T00:13:59;4.13;;;3.67;;
8592;SDS011;4334;49.982;8.398;2023-07-29T00:16:27;6.13;;;4.43;;
8592;SDS011;4334;49.982;8.398;2023-07-29T00:18:53;6.23;;;4.20;;
8592;SDS011;4334;49.982;8.398;2023-07-29T00:21:20;6.40;;;4.03;;
8592;SDS011;4334;49.982;8.398;2023-07-29T00:23:47;6.63;;;4.30;;
8592;SDS011;4334;49.982;8.398;2023-07-29T00:26:14;5.03;;;4.40;;
8592;SDS011;4334;49.982;8.398;2023-07-29T00:28:41;4.83;;;3.80;;
8592;SDS011;4334;49.982;8.398;2023-07-29T00:31:08;8.07;;;4.37;;
8592;SDS011;4334;49.982;8.398;2023-07-29T00:33:37;8.37;;;4.60;;
8592;SDS011;4334;49.982;8.398;2023-07-29T00:36:04;6.53;;;4.43;;
8592;SDS011;4334;49.982;8.398;2023-07-29T00:38:30;5.83;;;4.07;;
8592;SDS011;4334;49.982;8.398;2023-07-29T00:40:57;4.63;;;4.13;;
8592;SDS011;4334;49.982;8.398;2023-07-29T00:43:24;7.10;;;4.67;;
8592;SDS011;4334;49.982;8.398;2023-07-29T00:45:51;4.80;;;4.07;;
8592;SDS011;4334;49.982;8.398;2023-07-29T00:48:19;6.00;;;4.70;;
8592;SDS011;4334;49.982;8.398;2023-07-29T00:50:47;4.40;;;3.80;;
8592;SDS011;4334;49.982;8.398;2023-07-29T00:53:14;5.77;;;4.43;;
8592;SDS011;4334;49.982;8.398;2023-07-29T00:55:41;8.03;;;5.30;;
8592;SDS011;4334;49.982;8.398;2023-07-29T00:58:08;7.13;;;5.00;;
8592;SDS011;4334;49.982;8.398;2023-07-29T01:00:35;7.67;;;5.40;;
8592;SDS011;4334;49.982;8.398;2023-07-29T01:03:02;11.93;;;5.47;;
8592;SDS011;4334;49.982;8.398;2023-07-29T01:05:32;9.40;;;6.00;;
8592;SDS011;4334;49.982;8.398;2023-07-29T01:08:09;9.13;;;6.13;;
8592;SDS011;4334;49.982;8.398;2023-07-29T01:10:46;8.83;;;5.93;;
8592;SDS011;4334;49.982;8.398;2023-07-29T01:13:25;8.07;;;5.60;;
8592;SDS011;4334;49.982;8.398;2023-07-29T01:15:58;7.77;;;5.27;;
8592;SDS011;4334;49.982;8.398;2023-07-29T01:18:31;7.67;;;6.00;;
8592;SDS011;4334;49.982;8.398;2023-07-29T01:21:03;8.87;;;5.90;;
8592;SDS011;4334;49.982;8.398;2023-07-29T01:23:32;7.57;;;5.80;;
8592;SDS011;4334;49.982;8.398;2023-07-29T01:26:00;10.50;;;6.10;;
8592;SDS011;4334;49.982;8.398;2023-07-29T01:28:27;8.47;;;6.17;;
8592;SDS011;4334;49.982;8.398;2023-07-29T01:31:02;7.50;;;5.80;;
8592;SDS011;4334;49.982;8.398;2023-07-29T01:33:40;9.20;;;5.93;;
8592;SDS011;4334;49.982;8.398;2023-07-29T01:36:15;10.73;;;6.10;;
8592;SDS011;4334;49.982;8.398;2023-07-29T01:38:49;10.83;;;7.00;;
8592;SDS011;4334;49.982;8.398;2023-07-29T01:41:18;9.90;;;6.40;;
8592;SDS011;4334;49.982;8.398;2023-07-29T01:43:46;11.30;;;6.93;;
8592;SDS011;4334;49.982;8.398;2023-07-29T01:46:13;8.73;;;6.10;;
8592;SDS011;4334;49.982;8.398;2023-07-29T01:48:41;10.47;;;6.80;;
8592;SDS011;4334;49.982;8.398;2023-07-29T01:51:08;10.97;;;6.67;;
8592;SDS011;4334;49.982;8.398;2023-07-29T01:53:37;8.47;;;6.20;;
8592;SDS011;4334;49.982;8.398;2023-07-29T01:56:05;10.20;;;5.80;;
8592;SDS011;4334;49.982;8.398;2023-07-29T01:58:32;8.87;;;5.37;;
8592;SDS011;4334;49.982;8.398;2023-07-29T02:00:59;10.57;;;6.30;;
8592;SDS011;4334;49.982;8.398;2023-07-29T02:03:25;9.13;;;6.10;;
8592;SDS011;4334;49.982;8.398;2023-07-29T02:05:52;7.30;;;5.50;;
8592;SDS011;4334;49.982;8.398;2023-07-29T02:08:19;11.07;;;5.53;;
8592;SDS011;4334;49.982;8.398;2023-07-29T02:10:46;7.50;;;5.40;;
8592;SDS011;4334;49.982;8.398;2023-07-29T02:13:15;7.13;;;5.70;;
8592;SDS011;4334;49.982;8.398;2023-07-29T02:15:41;7.00;;;5.50;;
8592;SDS011;4334;49.982;8.398;2023-07-29T02:18:09;6.73;;;5.67;;
8592;SDS011;4334;49.982;8.398;2023-07-29T02:20:35;8.03;;;6.17;;
8592;SDS011;4334;49.982;8.398;2023-07-29T02:23:02;7.40;;;5.73;;
8592;SDS011;4334;49.982;8.398;2023-07-29T02:25:29;8.80;;;5.77;;
8592;SDS011;4334;49.982;8.398;2023-07-29T02:27:56;10.37;;;5.93;;
8592;SDS011;4334;49.982;8.398;2023-07-29T02:30:24;10.53;;;4.63;;
8592;SDS011;4334;49.982;8.398;2023-07-29T02:32:51;5.93;;;4.40;;
8592;SDS011;4334;49.982;8.398;2023-07-29T02:35:18;8.80;;;4.23;;
8592;SDS011;4334;49.982;8.398;2023-07-29T02:37:45;5.73;;;3.70;;
8592;SDS011;4334;49.982;8.398;2023-07-29T02:40:11;6.97;;;3.90;;
8592;SDS011;4334;49.982;8.398;2023-07-29T02:42:38;5.60;;;3.87;;
8592;SDS011;4334;49.982;8.398;2023-07-29T02:45:06;4.50;;;3.67;;
8592;SDS011;4334;49.982;8.398;2023-07-29T02:47:36;4.77;;;3.47;;
8592;SDS011;4334;49.982;8.398;2023-07-29T02:50:03;5.53;;;4.40;;
8592;SDS011;4334;49.982;8.398;2023-07-29T02:52:30;6.63;;;4.07;;
8592;SDS011;4334;49.982;8.398;2023-07-29T02:54:57;6.43;;;3.80;;
8592;SDS011;4334;49.982;8.398;2023-07-29T02:57:24;5.87;;;3.50;;
8592;SDS011;4334;49.982;8.398;2023-07-29T02:59:51;4.87;;;3.60;;
8592;SDS011;4334;49.982;8.398;2023-07-29T03:02:17;6.10;;;3.77;;
8592;SDS011;4334;49.982;8.398;2023-07-29T03:04:45;5.80;;;3.37;;
8592;SDS011;4334;49.982;8.398;2023-07-29T03:07:14;6.87;;;3.40;;
8592;SDS011;4334;49.982;8.398;2023-07-29T03:09:41;9.63;;;3.70;;
8592;SDS011;4334;49.982;8.398;2023-07-29T03:12:09;4.70;;;3.67;;
8592;SDS011;4334;49.982;8.398;2023-07-29T03:14:36;5.10;;;3.60;;
8592;SDS011;4334;49.982;8.398;2023-07-29T03:17:02;4.57;;;3.67;;
8592;SDS011;4334;49.982;8.398;2023-07-29T03:19:30;5.97;;;3.50;;
8592;SDS011;4334;49.982;8.398;2023-07-29T03:21:59;3.57;;;3.20;;
8592;SDS011;4334;49.982;8.398;2023-07-29T03:24:26;5.70;;;3.77;;
8592;SDS011;4334;49.982;8.398;2023-07-29T03:26:54;4.60;;;4.10;;
8592;SDS011;4334;49.982;8.398;2023-07-29T03:29:20;8.77;;;4.27;;
8592;SDS011;4334;49.982;8.398;2023-07-29T03:31:50;5.37;;;3.90;;
8592;SDS011;4334;49.982;8.398;2023-07-29T03:34:16;5.97;;;4.40;;
8592;SDS011;4334;49.982;8.398;2023-07-29T03:36:43;8.63;;;4.23;;
8592;SDS011;4334;49.982;8.398;2023-07-29T03:39:14;5.93;;;4.27;;
8592;SDS011;4334;49.982;8.398;2023-07-29T03:41:40;6.33;;;4.40;;
8592;SDS011;4334;49.982;8.398;2023-07-29T03:44:07;6.73;;;4.57;;
8592;SDS011;4334;49.982;8.398;2023-07-29T03:46:34;5.00;;;4.50;;
8592;SDS011;4334;49.982;8.398;2023-07-29T03:49:01;5.67;;;4.57;;
8592;SDS011;4334;49.982;8.398;2023-07-29T03:51:28;5.43;;;4.43;;
8592;SDS011;4334;49.982;8.398;2023-07-29T03:53:55;4.43;;;4.03;;
8592;SDS011;4334;49.982;8.398;2023-07-29T03:56:23;6.20;;;4.53;;
8592;SDS011;4334;49.982;8.398;2023-07-29T03:58:50;6.40;;;4.60;;
8592;SDS011;4334;49.982;8.398;2023-07-29T04:01:18;5.63;;;4.47;;
8592;SDS011;4334;49.982;8.398;2023-07-29T04:03:45;5.60;;;4.50;;
8592;SDS011;4334;49.982;8.398;2023-07-29T04:06:12;5.80;;;5.10;;
8592;SDS011;4334;49.982;8.398;2023-07-29T04:08:38;5.70;;;4.50;;
8592;SDS011;4334;49.982;8.398;2023-07-29T04:11:06;7.87;;;5.67;;
8592;SDS011;4334;49.982;8.398;2023-07-29T04:13:35;5.63;;;4.77;;
8592;SDS011;4334;49.982;8.398;2023-07-29T04:16:02;6.10;;;4.43;;
8592;SDS011;4334;49.982;8.398;2023-07-29T04:18:29;6.23;;;4.97;;
8592;SDS011;4334;49.982;8.398;2023-07-29T04:20:56;9.83;;;5.73;;
8592;SDS011;4334;49.982;8.398;2023-07-29T04:23:23;5.87;;;4.80;;
8592;SDS011;4334;49.982;8.398;2023-07-29T04:25:50;8.33;;;5.90;;
8592;SDS011;4334;49.982;8.398;2023-07-29T04:28:17;6.83;;;5.73;;
8592;SDS011;4334;49.982;8.398;2023-07-29T04:30:45;6.50;;;5.00;;
8592;SDS011;4334;49.982;8.398;2023-07-29T04:33:12;6.53;;;5.43;;
8592;SDS011;4334;49.982;8.398;2023-07-29T04:35:39;8.57;;;4.90;;
8592;SDS011;4334;49.982;8.398;2023-07-29T04:38:06;6.63;;;5.13;;
8592;SDS011;4334;49.982;8.398;2023-07-29T04:40:32;6.53;;;5.40;;
8592;SDS011;4334;49.982;8.398;2023-07-29T04:43:00;5.40;;;4.70;;
8592;SDS011;4334;49.982;8.398;2023-07-29T04:45:27;8.10;;;5.30;;
8592;SDS011;4334;49.982;8.398;2023-07-29T04:47:56;6.00;;;4.73;;
8592;SDS011;4334;49.982;8.398;2023-07-29T04:50:24;6.70;;;4.93;;
8592;SDS011;4334;49.982;8.398;2023-07-29T04:52:51;6.37;;;4.60;;
8592;SDS011;4334;49.982;8.398;2023-07-29T04:55:18;9.83;;;4.87;;
8592;SDS011;4334;49.982;8.398;2023-07-29T04:57:45;6.87;;;4.93;;
8592;SDS011;4334;49.982;8.398;2023-07-29T05:00:12;7.07;;;4.30;;
8592;SDS011;4334;49.982;8.398;2023-07-29T05:02:39;5.80;;;4.93;;
8592;SDS011;4334;49.982;8.398;2023-07-29T05:05:07;5.63;;;4.73;;
8592;SDS011;4334;49.982;8.398;2023-07-29T05:07:34;9.83;;;4.90;;
8592;SDS011;4334;49.982;8.398;2023-07-29T05:10:01;6.70;;;5.10;;
8592;SDS011;4334;49.982;8.398;2023-07-29T05:12:28;7.03;;;5.20;;
8592;SDS011;4334;49.982;8.398;2023-07-29T05:14:57;8.03;;;4.73;;
8592;SDS011;4334;49.982;8.398;2023-07-29T05:17:24;9.33;;;5.33;;
8592;SDS011;4334;49.982;8.398;2023-07-29T05:19:51;6.77;;;5.33;;
8592;SDS011;4334;49.982;8.398;2023-07-29T05:22:19;7.87;;;5.70;;
8592;SDS011;4334;49.982;8.398;2023-07-29T05:24:45;7.83;;;5.97;;
8592;SDS011;4334;49.982;8.398;2023-07-29T05:27:12;5.47;;;4.60;;
8592;SDS011;4334;49.982;8.398;2023-07-29T05:29:39;7.33;;;4.70;;
8592;SDS011;4334;49.982;8.398;2023-07-29T05:32:06;6.17;;;5.43;;
8592;SDS011;4334;49.982;8.398;2023-07-29T05:34:33;9.47;;;5.20;;
8592;SDS011;4334;49.982;8.398;2023-07-29T05:37:00;7.63;;;5.40;;
8592;SDS011;4334;49.982;8.398;2023-07-29T05:39:28;7.40;;;5.30;;
8592;SDS011;4334;49.982;8.398;2023-07-29T05:41:55;7.50;;;5.10;;
8592;SDS011;4334;49.982;8.398;2023-07-29T05:44:22;7.00;;;5.30;;
8592;SDS011;4334;49.982;8.398;2023-07-29T05:46:49;6.47;;;5.10;;
8592;SDS011;4334;49.982;8.398;2023-07-29T05:49:16;5.43;;;4.40;;
8592;SDS011;4334;49.982;8.398;2023-07-29T05:51:43;5.90;;;5.30;;
8592;SDS011;4334;49.982;8.398;2023-07-29T05:54:10;5.80;;;4.80;;
8592;SDS011;4334;49.982;8.398;2023-07-29T05:56:38;5.13;;;4.23;;
8592;SDS011;4334;49.982;8.398;2023-07-29T05:59:04;7.22;;;4.22;;
8592;SDS011;4334;49.982;8.398;2023-07-29T06:01:31;5.50;;;4.53;;
8592;SDS011;4334;49.982;8.398;2023-07-29T06:03:58;6.25;;;4.05;;
8592;SDS011;4334;49.982;8.398;2023-07-29T06:06:25;4.68;;;4.07;;
8592;SDS011;4334;49.982;8.398;2023-07-29T06:08:51;7.63;;;4.32;;
8592;SDS011;4334;49.982;8.398;2023-07-29T06:11:18;6.97;;;3.60;;
8592;SDS011;4334;49.982;8.398;2023-07-29T06:13:47;4.77;;;3.40;;
8592;SDS011;4334;49.982;8.398;2023-07-29T06:16:14;5.77;;;3.53;;
8592;SDS011;4334;49.982;8.398;2023-07-29T06:18:40;6.78;;;3.90;;
8592;SDS011;4334;49.982;8.398;2023-07-29T06:21:07;4.20;;;3.33;;
8592;SDS011;4334;49.982;8.398;2023-07-29T06:23:37;6.93;;;4.43;;
8592;SDS011;4334;49.982;8.398;2023-07-29T06:26:04;4.60;;;3.92;;
8592;SDS011;4334;49.982;8.398;2023-07-29T06:28:31;5.60;;;3.60;;
8592;SDS011;4334;49.982;8.398;2023-07-29T06:31:00;4.90;;;4.20;;
8592;SDS011;4334;49.982;8.398;2023-07-29T06:33:27;4.47;;;4.07;;
8592;SDS011;4334;49.982;8.398;2023-07-29T06:35:53;5.60;;;3.90;;
8592;SDS011;4334;49.982;8.398;2023-07-29T06:38:21;4.70;;;4.23;;
8592;SDS011;4334;49.982;8.398;2023-07-29T06:40:50;4.87;;;4.03;;
8592;SDS011;4334;49.982;8.398;2023-07-29T06:43:17;5.63;;;3.80;;
8592;SDS011;4334;49.982;8.398;2023-07-29T06:45:44;4.40;;;4.00;;
8592;SDS011;4334;49.982;8.398;2023-07-29T06:48:12;6.37;;;3.53;;
8592;SDS011;4334;49.982;8.398;2023-07-29T06:50:39;4.13;;;3.70;;
8592;SDS011;4334;49.982;8.398;2023-07-29T06:53:05;4.10;;;3.70;;
8592;SDS011;4334;49.982;8.398;2023-07-29T06:55:32;6.00;;;3.77;;
8592;SDS011;4334;49.982;8.398;2023-07-29T06:57:59;5.20;;;3.50;;
8592;SDS011;4334;49.982;8.398;2023-07-29T07:00:26;4.13;;;3.53;;
8592;SDS011;4334;49.982;8.398;2023-07-29T07:02:52;4.30;;;3.40;;
8592;SDS011;4334;49.982;8.398;2023-07-29T07:05:20;4.43;;;3.53;;
8592;SDS011;4334;49.982;8.398;2023-07-29T07:07:47;5.53;;;3.40;;
8592;SDS011;4334;49.982;8.398;2023-07-29T07:10:14;4.17;;;3.77;;
8592;SDS011;4334;49.982;8.398;2023-07-29T07:12:41;6.70;;;3.77;;
8592;SDS011;4334;49.982;8.398;2023-07-29T07:15:08;3.87;;;3.43;;
8592;SDS011;4334;49.982;8.398;2023-07-29T07:17:35;7.00;;;3.33;;
8592;SDS011;4334;49.982;8.398;2023-07-29T07:20:02;6.13;;;3.53;;
8592;SDS011;4334;49.982;8.398;2023-07-29T07:22:30;4.53;;;3.50;;
8592;SDS011;4334;49.982;8.398;2023-07-29T07:24:57;3.80;;;3.43;;
8592;SDS011;4334;49.982;8.398;2023-07-29T07:27:24;4.50;;;3.30;;
8592;SDS011;4334;49.982;8.398;2023-07-29T07:29:51;7.20;;;2.97;;
8592;SDS011;4334;49.982;8.398;2023-07-29T07:32:17;3.77;;;2.87;;
8592;SDS011;4334;49.982;8.398;2023-07-29T07:34:44;5.87;;;3.43;;
8592;SDS011;4334;49.982;8.398;2023-07-29T07:37:11;3.53;;;2.93;;
8592;SDS011;4334;49.982;8.398;2023-07-29T07:39:39;4.80;;;3.47;;
8592;SDS011;4334;49.982;8.398;2023-07-29T07:42:06;3.38;;;2.88;;
8592;SDS011;4334;49.982;8.398;2023-07-29T07:44:32;3.17;;;2.45;;
8592;SDS011;4334;49.982;8.398;2023-07-29T07:46:59;2.97;;;2.50;;
8592;SDS011;4334;49.982;8.398;2023-07-29T07:49:26;3.23;;;2.10;;
8592;SDS011;4334;49.982;8.398;2023-07-29T07:51:52;2.17;;;1.98;;
8592;SDS011;4334;49.982;8.398;2023-07-29T07:54:19;4.78;;;2.13;;
8592;SDS011;4334;49.982;8.398;2023-07-29T07:56:47;1.92;;;1.70;;
8592;SDS011;4334;49.982;8.398;2023-07-29T07:59:14;2.70;;;1.50;;
8592;SDS011;4334;49.982;8.398;2023-07-29T08:01:40;2.25;;;1.80;;
8592;SDS011;4334;49.982;8.398;2023-07-29T08:04:07;3.65;;;1.88;;
8592;SDS011;4334;49.982;8.398;2023-07-29T08:06:34;1.88;;;1.60;;
8592;SDS011;4334;49.982;8.398;2023-07-29T08:09:01;2.85;;;1.60;;
8592;SDS011;4334;49.982;8.398;2023-07-29T08:11:28;1.80;;;1.70;;
8592;SDS011;4334;49.982;8.398;2023-07-29T08:13:56;4.93;;;1.55;;
8592;SDS011;4334;49.982;8.398;2023-07-29T08:16:24;2.03;;;1.60;;
8592;SDS011;4334;49.982;8.398;2023-07-29T08:18:51;1.67;;;1.38;;
8592;SDS011;4334;49.982;8.398;2023-07-29T08:21:17;1.88;;;1.30;;
8592;SDS011;4334;49.982;8.398;2023-07-29T08:23:44;1.90;;;1.20;;
8592;SDS011;4334;49.982;8.398;2023-07-29T08:26:11;1.52;;;1.40;;
8592;SDS011;4334;49.982;8.398;2023-07-29T08:28:38;1.15;;;1.05;;
8592;SDS011;4334;49.982;8.398;2023-07-29T08:31:07;0.90;;;0.90;;
8592;SDS011;4334;49.982;8.398;2023-07-29T08:33:34;1.45;;;1.00;;
8592;SDS011;4334;49.982;8.398;2023-07-29T08:36:00;2.17;;;0.90;;
8592;SDS011;4334;49.982;8.398;2023-07-29T08:38:27;0.90;;;0.90;;
8592;SDS011;4334;49.982;8.398;2023-07-29T08:40:57;1.00;;;0.90;;
8592;SDS011;4334;49.982;8.398;2023-07-29T08:43:30;1.00;;;1.00;;
8592;SDS011;4334;49.982;8.398;2023-07-29T08:45:58;1.08;;;0.98;;
8592;SDS011;4334;49.982;8.398;2023-07-29T08:48:29;1.08;;;0.93;;
8592;SDS011;4334;49.982;8.398;2023-07-29T08:51:00;0.80;;;0.80;;
8592;SDS011;4334;49.982;8.398;2023-07-29T08:53:29;0.77;;;0.77;;
8592;SDS011;4334;49.982;8.398;2023-07-29T08:55:57;0.80;;;0.80;;
8592;SDS011;4334;49.982;8.398;2023-07-29T08:58:24;0.88;;;0.80;;
8592;SDS011;4334;49.982;8.398;2023-07-29T09:00:52;1.08;;;0.98;;
8592;SDS011;4334;49.982;8.398;2023-07-29T09:03:19;1.25;;;0.85;;
8592;SDS011;4334;49.982;8.398;2023-07-29T09:05:47;0.90;;;0.90;;
8592;SDS011;4334;49.982;8.398;2023-07-29T09:08:14;0.57;;;0.57;;
8592;SDS011;4334;49.982;8.398;2023-07-29T09:10:41;0.82;;;0.80;;
8592;SDS011;4334;49.982;8.398;2023-07-29T09:13:07;0.80;;;0.80;;
8592;SDS011;4334;49.982;8.398;2023-07-29T09:15:35;0.90;;;0.90;;
8592;SDS011;4334;49.982;8.398;2023-07-29T09:18:09;2.80;;;1.45;;
8592;SDS011;4334;49.982;8.398;2023-07-29T09:20:37;0.75;;;0.75;;
8592;SDS011;4334;49.982;8.398;2023-07-29T09:23:07;0.63;;;0.63;;
8592;SDS011;4334;49.982;8.398;2023-07-29T09:25:35;1.00;;;0.90;;
8592;SDS011;4334;49.982;8.398;2023-07-29T09:28:07;1.30;;;1.20;;
8592;SDS011;4334;49.982;8.398;2023-07-29T09:30:34;0.80;;;0.80;;
8592;SDS011;4334;49.982;8.398;2023-07-29T09:33:01;2.58;;;0.70;;
8592;SDS011;4334;49.982;8.398;2023-07-29T09:35:29;1.02;;;0.93;;
8592;SDS011;4334;49.982;8.398;2023-07-29T09:37:58;1.00;;;0.90;;
8592;SDS011;4334;49.982;8.398;2023-07-29T09:40:26;0.80;;;0.80;;
8592;SDS011;4334;49.982;8.398;2023-07-29T09:42:54;1.40;;;1.13;;
8592;SDS011;4334;49.982;8.398;2023-07-29T09:45:21;1.80;;;1.10;;
8592;SDS011;4334;49.982;8.398;2023-07-29T09:47:49;1.17;;;1.08;;
8592;SDS011;4334;49.982;8.398;2023-07-29T09:50:17;3.85;;;0.82;;
8592;SDS011;4334;49.982;8.398;2023-07-29T09:52:44;1.33;;;0.82;;
8592;SDS011;4334;49.982;8.398;2023-07-29T09:55:13;4.10;;;1.08;;
8592;SDS011;4334;49.982;8.398;2023-07-29T09:57:45;1.50;;;1.08;;
8592;SDS011;4334;49.982;8.398;2023-07-29T10:00:12;1.33;;;0.90;;
8592;SDS011;4334;49.982;8.398;2023-07-29T10:02:40;0.80;;;0.80;;
8592;SDS011;4334;49.982;8.398;2023-07-29T10:05:09;1.08;;;0.98;;
8592;SDS011;4334;49.982;8.398;2023-07-29T10:07:36;1.13;;;0.90;;
8592;SDS011;4334;49.982;8.398;2023-07-29T10:10:04;1.23;;;0.82;;
8592;SDS011;4334;49.982;8.398;2023-07-29T10:12:35;2.92;;;0.90;;
8592;SDS011;4334;49.982;8.398;2023-07-29T10:15:04;1.10;;;1.00;;
8592;SDS011;4334;49.982;8.398;2023-07-29T10:17:33;0.93;;;0.93;;
8592;SDS011;4334;49.982;8.398;2023-07-29T10:20:00;0.90;;;0.90;;
8592;SDS011;4334;49.982;8.398;2023-07-29T10:22:32;1.05;;;0.98;;
8592;SDS011;4334;49.982;8.398;2023-07-29T10:25:02;0.98;;;0.95;;
8592;SDS011;4334;49.982;8.398;2023-07-29T10:27:32;1.20;;;1.10;;
8592;SDS011;4334;49.982;8.398;2023-07-29T10:30:06;1.55;;;1.23;;
8592;SDS011;4334;49.982;8.398;2023-07-29T10:32:35;1.48;;;1.27;;
8592;SDS011;4334;49.982;8.398;2023-07-29T10:35:03;1.23;;;1.10;;
8592;SDS011;4334;49.982;8.398;2023-07-29T10:37:31;1.23;;;1.13;;
8592;SDS011;4334;49.982;8.398;2023-07-29T10:39:59;1.23;;;1.10;;
8592;SDS011;4334;49.982;8.398;2023-07-29T10:42:25;1.10;;;1.00;;
8592;SDS011;4334;49.982;8.398;2023-07-29T10:44:52;1.10;;;1.00;;
8592;SDS011;4334;49.982;8.398;2023-07-29T10:47:21;1.23;;;1.13;;
8592;SDS011;4334;49.982;8.398;2023-07-29T10:49:50;1.20;;;1.10;;
8592;SDS011;4334;49.982;8.398;2023-07-29T10:52:29;1.20;;;1.10;;
8592;SDS011;4334;49.982;8.398;2023-07-29T10:54:57;1.63;;;1.33;;
8592;SDS011;4334;49.982;8.398;2023-07-29T10:57:31;1.73;;;1.15;;
8592;SDS011;4334;49.982;8.398;2023-07-29T10:59:59;1.08;;;0.98;;
8592;SDS011;4334;49.982;8.398;2023-07-29T11:02:31;1.40;;;1.10;;
8592;SDS011;4334;49.982;8.398;2023-07-29T11:04:59;2.80;;;1.30;;
8592;SDS011;4334;49.982;8.398;2023-07-29T11:07:30;1.20;;;1.10;;
8592;SDS011;4334;49.982;8.398;2023-07-29T11:10:12;1.35;;;1.25;;
8592;SDS011;4334;49.982;8.398;2023-07-29T11:12:40;1.58;;;1.20;;
8592;SDS011;4334;49.982;8.398;2023-07-29T11:15:21;1.35;;;1.25;;
8592;SDS011;4334;49.982;8.398;2023-07-29T11:17:51;1.35;;;1.25;;
8592;SDS011;4334;49.982;8.398;2023-07-29T11:20:20;1.33;;;1.20;;
8592;SDS011;4334;49.982;8.398;2023-07-29T11:22:48;1.42;;;1.33;;
8592;SDS011;4334;49.982;8.398;2023-07-29T11:25:16;1.73;;;1.40;;
8592;SDS011;4334;49.982;8.398;2023-07-29T11:27:44;1.15;;;1.05;;
8592;SDS011;4334;49.982;8.398;2023-07-29T11:30:12;1.42;;;1.33;;
8592;SDS011;4334;49.982;8.398;2023-07-29T11:32:41;1.10;;;1.00;;
8592;SDS011;4334;49.982;8.398;2023-07-29T11:35:14;1.17;;;1.08;;
8592;SDS011;4334;49.982;8.398;2023-07-29T11:37:42;1.20;;;1.10;;
8592;SDS011;4334;49.982;8.398;2023-07-29T11:40:12;1.98;;;1.40;;
8592;SDS011;4334;49.982;8.398;2023-07-29T11:42:40;1.30;;;1.20;;
8592;SDS011;4334;49.982;8.398;2023-07-29T11:45:07;1.40;;;1.20;;
8592;SDS011;4334;49.982;8.398;2023-07-29T11:47:36;1.58;;;1.48;;
8592;SDS011;4334;49.982;8.398;2023-07-29T11:50:03;2.28;;;2.00;;
8592;SDS011;4334;49.982;8.398;2023-07-29T11:52:33;3.42;;;1.75;;
8592;SDS011;4334;49.982;8.398;2023-07-29T11:55:00;1.48;;;1.38;;
8592;SDS011;4334;49.982;8.398;2023-07-29T11:57:32;1.30;;;1.20;;
8592;SDS011;4334;49.982;8.398;2023-07-29T12:00:01;1.88;;;1.55;;
8592;SDS011;4334;49.982;8.398;2023-07-29T12:02:29;1.45;;;1.35;;
8592;SDS011;4334;49.982;8.398;2023-07-29T12:04:57;2.47;;;1.40;;
8592;SDS011;4334;49.982;8.398;2023-07-29T12:07:24;1.75;;;1.33;;
8592;SDS011;4334;49.982;8.398;2023-07-29T12:09:53;1.35;;;1.20;;
8592;SDS011;4334;49.982;8.398;2023-07-29T12:12:21;1.48;;;1.33;;
8592;SDS011;4334;49.982;8.398;2023-07-29T12:14:49;1.20;;;1.10;;
8592;SDS011;4334;49.982;8.398;2023-07-29T12:17:16;1.27;;;1.13;;
8592;SDS011;4334;49.982;8.398;2023-07-29T12:19:44;1.30;;;1.20;;
8592;SDS011;4334;49.982;8.398;2023-07-29T12:22:11;1.33;;;1.23;;
8592;SDS011;4334;49.982;8.398;2023-07-29T12:24:38;1.45;;;1.30;;
8592;SDS011;4334;49.982;8.398;2023-07-29T12:27:11;2.03;;;1.42;;
8592;SDS011;4334;49.982;8.398;2023-07-29T12:29:42;1.30;;;1.20;;
8592;SDS011;4334;49.982;8.398;2023-07-29T12:32:11;1.10;;;1.00;;
8592;SDS011;4334;49.982;8.398;2023-07-29T12:34:39;1.60;;;1.17;;
8592;SDS011;4334;49.982;8.398;2023-07-29T12:37:06;1.17;;;1.08;;
8592;SDS011;4334;49.982;8.398;2023-07-29T12:39:34;0.93;;;0.93;;
8592;SDS011;4334;49.982;8.398;2023-07-29T12:42:02;2.88;;;1.00;;
8592;SDS011;4334;49.982;8.398;2023-07-29T12:44:31;1.20;;;1.10;;
8592;SDS011;4334;49.982;8.398;2023-07-29T12:47:00;1.10;;;1.02;;
8592;SDS011;4334;49.982;8.398;2023-07-29T12:49:27;1.30;;;1.20;;
8592;SDS011;4334;49.982;8.398;2023-07-29T12:51:54;1.38;;;1.20;;
8592;SDS011;4334;49.982;8.398;2023-07-29T12:54:21;1.02;;;1.00;;
8592;SDS011;4334;49.982;8.398;2023-07-29T12:56:48;1.30;;;1.20;;
8592;SDS011;4334;49.982;8.398;2023-07-29T12:59:15;1.30;;;1.20;;
8592;SDS011;4334;49.982;8.398;2023-07-29T13:01:43;1.42;;;1.27;;
8592;SDS011;4334;49.982;8.398;2023-07-29T13:04:10;1.92;;;1.42;;
8592;SDS011;4334;49.982;8.398;2023-07-29T13:06:37;1.45;;;1.30;;
8592;SDS011;4334;49.982;8.398;2023-07-29T13:09:04;1.20;;;1.10;;
8592;SDS011;4334;49.982;8.398;2023-07-29T13:11:31;1.45;;;1.30;;
8592;SDS011;4334;49.982;8.398;2023-07-29T13:13:58;1.55;;;1.20;;
8592;SDS011;4334;49.982;8.398;2023-07-29T13:16:26;1.17;;;1.08;;
8592;SDS011;4334;49.982;8.398;2023-07-29T13:18:55;1.48;;;1.30;;
8592;SDS011;4334;49.982;8.398;2023-07-29T13:21:22;1.25;;;1.13;;
8592;SDS011;4334;49.982;8.398;2023-07-29T13:23:49;1.17;;;1.08;;
8592;SDS011;4334;49.982;8.398;2023-07-29T13:26:15;1.30;;;1.20;;
8592;SDS011;4334;49.982;8.398;2023-07-29T13:28:42;1.60;;;1.10;;
8592;SDS011;4334;49.982;8.398;2023-07-29T13:31:09;1.38;;;1.20;;
8592;SDS011;4334;49.982;8.398;2023-07-29T13:33:36;1.25;;;1.00;;
8592;SDS011;4334;49.982;8.398;2023-07-29T13:36:04;2.03;;;1.20;;
8592;SDS011;4334;49.982;8.398;2023-07-29T13:38:33;1.95;;;1.33;;
8592;SDS011;4334;49.982;8.398;2023-07-29T13:41:00;1.33;;;1.23;;
8592;SDS011;4334;49.982;8.398;2023-07-29T13:43:27;2.75;;;1.30;;
8592;SDS011;4334;49.982;8.398;2023-07-29T13:45:54;2.05;;;1.52;;
8592;SDS011;4334;49.982;8.398;2023-07-29T13:48:20;1.75;;;1.52;;
8592;SDS011;4334;49.982;8.398;2023-07-29T13:50:47;1.83;;;1.20;;
8592;SDS011;4334;49.982;8.398;2023-07-29T13:53:15;1.40;;;1.30;;
8592;SDS011;4334;49.982;8.398;2023-07-29T13:55:45;1.40;;;1.30;;
8592;SDS011;4334;49.982;8.398;2023-07-29T13:58:11;1.50;;;1.10;;
8592;SDS011;4334;49.982;8.398;2023-07-29T14:00:38;1.50;;;1.30;;
8592;SDS011;4334;49.982;8.398;2023-07-29T14:03:05;1.40;;;1.30;;
8592;SDS011;4334;49.982;8.398;2023-07-29T14:05:31;1.20;;;1.10;;
8592;SDS011;4334;49.982;8.398;2023-07-29T14:07:58;2.03;;;1.80;;
8592;SDS011;4334;49.982;8.398;2023-07-29T14:10:26;1.42;;;1.33;;
8592;SDS011;4334;49.982;8.398;2023-07-29T14:12:53;1.45;;;1.35;;
8592;SDS011;4334;49.982;8.398;2023-07-29T14:15:20;1.83;;;1.30;;
8592;SDS011;4334;49.982;8.398;2023-07-29T14:17:47;1.55;;;1.27;;
8592;SDS011;4334;49.982;8.398;2023-07-29T14:20:17;1.23;;;1.13;;
8592;SDS011;4334;49.982;8.398;2023-07-29T14:22:44;1.25;;;1.15;;
8592;SDS011;4334;49.982;8.398;2023-07-29T14:25:13;1.30;;;1.20;;
8592;SDS011;4334;49.982;8.398;2023-07-29T14:27:42;1.40;;;1.30;;
8592;SDS011;4334;49.982;8.398;2023-07-29T14:30:09;1.50;;;1.40;;
8592;SDS011;4334;49.982;8.398;2023-07-29T14:32:37;1.55;;;1.40;;
8592;SDS011;4334;49.982;8.398;2023-07-29T14:35:04;1.27;;;1.17;;
8592;SDS011;4334;49.982;8.398;2023-07-29T14:37:32;1.20;;;1.10;;
8592;SDS011;4334;49.982;8.398;2023-07-29T14:39:59;1.67;;;1.13;;
8592;SDS011;4334;49.982;8.398;2023-07-29T14:42:27;1.38;;;1.27;;
8592;SDS011;4334;49.982;8.398;2023-07-29T14:44:55;1.33;;;1.23;;
8592;SDS011;4334;49.982;8.398;2023-07-29T14:47:22;1.48;;;1.30;;
8592;SDS011;4334;49.982;8.398;2023-07-29T14:49:48;1.25;;;1.15;;
8592;SDS011;4334;49.982;8.398;2023-07-29T14:52:15;3.28;;;1.63;;
8592;SDS011;4334;49.982;8.398;2023-07-29T14:54:42;1.63;;;1.23;;
8592;SDS011;4334;49.982;8.398;2023-07-29T14:57:09;1.33;;;1.20;;
8592;SDS011;4334;49.982;8.398;2023-07-29T14:59:36;2.03;;;1.40;;
8592;SDS011;4334;49.982;8.398;2023-07-29T15:02:05;1.73;;;1.23;;
8592;SDS011;4334;49.982;8.398;2023-07-29T15:04:32;5.68;;;1.38;;
8592;SDS011;4334;49.982;8.398;2023-07-29T15:06:59;3.35;;;1.30;;
8592;SDS011;4334;49.982;8.398;2023-07-29T15:09:25;1.45;;;1.35;;
8592;SDS011;4334;49.982;8.398;2023-07-29T15:11:52;2.95;;;1.40;;
8592;SDS011;4334;49.982;8.398;2023-07-29T15:14:19;1.42;;;1.30;;
8592;SDS011;4334;49.982;8.398;2023-07-29T15:16:46;1.60;;;1.30;;
8592;SDS011;4334;49.982;8.398;2023-07-29T15:19:15;1.80;;;1.55;;